Time;durP1;ratioP1;P1;durP2;ratioP2;P2;SDS_P1;SDS_P2;PMS_P1;PMS_P2;Temp;Humidity;BMP_temperature;BMP_pressure;BME280_temperature;BME280_humidity;BME280_pressure;Samples;Min_cycle;Max_cycle;Signal;HPM_P1;HPM_P2
2023/04/19 00:00:42;;;;;;;20.38;10.20;;;9.80;99.90;;;;;;5073725;28;20033;-73
2023/04/19 00:03:09;;;;;;;20.75;10.27;;;9.90;99.90;;;;;;5072398;28;20158;-75
2023/04/19 00:05:37;;;;;;;20.02;10.10;;;9.90;99.90;;;;;;5071656;28;20119;-73
2023/04/19 00:08:03;;;;;;;16.33;8.93;;;9.80;99.90;;;;;;5063518;28;20100;-73
2023/04/19 00:10:29;;;;;;;21.30;10.70;;;9.80;99.90;;;;;;5073341;28;20024;-77
2023/04/19 00:12:57;;;;;;;22.92;10.38;;;9.80;99.90;;;;;;5073542;28;20017;-73
2023/04/19 00:15:23;;;;;;;19.83;10.00;;;9.80;99.90;;;;;;5071825;28;20051;-73
2023/04/19 00:17:49;;;;;;;18.55;9.75;;;9.80;99.90;;;;;;5073254;28;20032;-75
2023/04/19 00:20:14;;;;;;;19.60;10.38;;;9.80;99.90;;;;;;5072828;28;20085;-77
2023/04/19 00:22:40;;;;;;;19.85;10.45;;;9.70;99.90;;;;;;5073110;28;20107;-73
2023/04/19 00:25:06;;;;;;;19.60;10.07;;;9.70;99.90;;;;;;5071401;28;20027;-75
2023/04/19 00:27:32;;;;;;;20.30;10.98;;;9.70;99.90;;;;;;5073174;28;20071;-74
2023/04/19 00:29:57;;;;;;;20.60;10.93;;;9.70;99.90;;;;;;5073071;28;20033;-77
2023/04/19 00:32:23;;;;;;;23.73;11.43;;;9.70;99.90;;;;;;5073081;28;20444;-75
2023/04/19 00:34:48;;;;;;;22.73;10.82;;;9.70;99.90;;;;;;5073141;28;20031;-73
2023/04/19 00:37:16;;;;;;;21.58;11.25;;;9.70;99.90;;;;;;5073452;28;20074;-74
2023/04/19 00:39:42;;;;;;;20.70;10.85;;;9.60;99.90;;;;;;5072852;28;20024;-73
2023/04/19 00:42:07;;;;;;;21.45;11.70;;;9.60;99.90;;;;;;5062689;28;20021;-73
2023/04/19 00:44:33;;;;;;;21.30;11.43;;;9.60;99.90;;;;;;5072572;28;20024;-73
2023/04/19 00:46:59;;;;;;;20.80;11.23;;;9.60;99.90;;;;;;5072936;28;20392;-75
2023/04/19 00:49:26;;;;;;;21.05;11.52;;;9.60;99.90;;;;;;5072910;28;20020;-75
2023/04/19 00:51:51;;;;;;;21.50;10.70;;;9.60;99.90;;;;;;5072837;28;20028;-73
2023/04/19 00:54:19;;;;;;;21.67;12.20;;;9.60;99.90;;;;;;5071095;28;20039;-73
2023/04/19 00:56:45;;;;;;;22.77;12.45;;;9.60;99.90;;;;;;5071595;28;20036;-75
2023/04/19 00:59:11;;;;;;;21.33;12.25;;;9.60;99.90;;;;;;5071846;28;20021;-73
2023/04/19 01:01:37;;;;;;;22.65;12.43;;;9.60;99.90;;;;;;5070133;28;20036;-73
2023/04/19 01:04:04;;;;;;;23.13;12.38;;;9.60;99.90;;;;;;5073088;28;20099;-73
2023/04/19 01:06:30;;;;;;;23.88;12.25;;;9.50;99.90;;;;;;5073271;28;20090;-73
2023/04/19 01:08:56;;;;;;;24.63;13.15;;;9.50;99.90;;;;;;5073248;28;20037;-73
2023/04/19 01:11:23;;;;;;;22.83;11.95;;;9.50;99.90;;;;;;5071908;28;20415;-73
2023/04/19 01:13:49;;;;;;;24.27;13.38;;;9.50;99.90;;;;;;5071300;28;20021;-73
2023/04/19 01:16:14;;;;;;;22.23;12.95;;;9.50;99.90;;;;;;5069684;28;20035;-73
2023/04/19 01:18:40;;;;;;;23.45;12.00;;;9.50;99.90;;;;;;5070871;28;20504;-73
2023/04/19 01:21:07;;;;;;;22.15;13.10;;;9.40;99.90;;;;;;5071086;28;20020;-73
2023/04/19 01:23:33;;;;;;;24.75;12.88;;;9.40;99.90;;;;;;5068020;28;20044;-73
2023/04/19 01:26:00;;;;;;;23.05;12.60;;;9.50;99.90;;;;;;5071284;28;20064;-73
2023/04/19 01:28:26;;;;;;;22.00;12.10;;;9.40;99.90;;;;;;5072133;28;20079;-73
2023/04/19 01:30:52;;;;;;;24.95;13.85;;;9.50;99.90;;;;;;5072450;28;20052;-73
2023/04/19 01:33:19;;;;;;;22.55;12.60;;;9.50;99.90;;;;;;5069760;28;20523;-73
2023/04/19 01:35:45;;;;;;;23.75;12.88;;;9.50;99.90;;;;;;5066739;28;20521;-72
2023/04/19 01:38:11;;;;;;;25.60;14.15;;;9.50;99.90;;;;;;5062514;28;20056;-72
2023/04/19 01:40:36;;;;;;;22.40;13.13;;;9.50;99.90;;;;;;5073719;28;20052;-72
2023/04/19 01:43:02;;;;;;;24.10;13.43;;;9.40;99.90;;;;;;5075986;28;20031;-72
2023/04/19 01:45:27;;;;;;;22.33;13.38;;;9.40;99.90;;;;;;5076039;28;20035;-72
2023/04/19 01:47:54;;;;;;;21.75;12.75;;;9.40;99.90;;;;;;5076371;28;20060;-72
2023/04/19 01:50:20;;;;;;;24.80;12.93;;;9.40;99.90;;;;;;5060752;28;20025;-72
2023/04/19 01:52:46;;;;;;;22.80;12.73;;;9.40;99.90;;;;;;5075069;28;20452;-72
2023/04/19 01:55:11;;;;;;;25.65;13.45;;;9.40;99.90;;;;;;5076242;28;20046;-72
2023/04/19 01:57:37;;;;;;;22.60;12.35;;;9.40;99.90;;;;;;5075549;28;20056;-72
2023/04/19 02:00:03;;;;;;;24.00;13.48;;;9.50;99.90;;;;;;5076411;28;20114;-72
2023/04/19 02:02:28;;;;;;;23.55;12.95;;;9.50;99.90;;;;;;5076609;28;20024;-72
2023/04/19 02:04:54;;;;;;;25.85;14.02;;;9.40;99.90;;;;;;5076135;28;20425;-73
2023/04/19 02:07:19;;;;;;;25.50;13.55;;;9.40;99.90;;;;;;5076302;28;20072;-73
2023/04/19 02:09:45;;;;;;;24.80;13.80;;;9.40;99.90;;;;;;5076246;28;20050;-73
2023/04/19 02:12:10;;;;;;;25.92;13.25;;;9.40;99.90;;;;;;5076121;28;20024;-73
2023/04/19 02:14:36;;;;;;;24.08;13.23;;;9.40;99.90;;;;;;5075863;28;20471;-73
2023/04/19 02:17:02;;;;;;;27.40;13.38;;;9.40;99.90;;;;;;5076353;28;20050;-73
2023/04/19 02:19:27;;;;;;;23.77;13.07;;;9.40;99.90;;;;;;5065401;28;20079;-73
2023/04/19 02:21:56;;;;;;;25.95;13.45;;;9.40;99.90;;;;;;5056031;28;20021;-73
2023/04/19 02:24:23;;;;;;;25.27;13.30;;;9.40;99.90;;;;;;5056149;28;20111;-73
2023/04/19 02:26:49;;;;;;;25.88;13.85;;;9.40;99.90;;;;;;5055818;28;20048;-73
2023/04/19 02:29:15;;;;;;;23.08;13.90;;;9.40;99.90;;;;;;5055809;28;20049;-73
2023/04/19 02:31:44;;;;;;;26.05;13.75;;;9.40;99.90;;;;;;5055914;28;20129;-73
2023/04/19 02:34:09;;;;;;;25.20;13.70;;;9.50;99.90;;;;;;5055918;28;20029;-73
2023/04/19 02:36:35;;;;;;;22.88;13.10;;;9.50;99.90;;;;;;5055873;28;20069;-73
2023/04/19 02:39:00;;;;;;;23.10;13.20;;;9.60;99.90;;;;;;5056014;28;20025;-74
2023/04/19 02:41:26;;;;;;;25.10;12.98;;;9.70;99.90;;;;;;5055268;28;20319;-74
2023/04/19 02:43:51;;;;;;;24.42;13.57;;;9.70;99.90;;;;;;5055131;28;20041;-73
2023/04/19 02:46:17;;;;;;;24.67;13.05;;;9.80;99.90;;;;;;5055242;28;20040;-73
2023/04/19 02:48:43;;;;;;;24.10;12.18;;;9.90;99.90;;;;;;5055572;28;20025;-74
2023/04/19 02:51:15;;;;;;;23.02;12.23;;;9.90;99.90;;;;;;5055400;28;20025;-72
2023/04/19 02:53:40;;;;;;;24.67;12.93;;;10.00;99.90;;;;;;5055323;28;20025;-72
2023/04/19 02:56:07;;;;;;;24.10;12.75;;;10.00;99.90;;;;;;5074707;28;20591;-72
2023/04/19 02:58:32;;;;;;;22.05;12.27;;;10.00;99.90;;;;;;5075455;28;20024;-73
2023/04/19 03:00:58;;;;;;;22.27;12.18;;;10.10;99.90;;;;;;5075439;28;20077;-73
2023/04/19 03:03:23;;;;;;;24.90;13.68;;;10.10;99.90;;;;;;5075138;28;20031;-73
2023/04/19 03:05:49;;;;;;;26.70;12.90;;;10.10;99.90;;;;;;5073333;28;20051;-73
2023/04/19 03:08:14;;;;;;;22.27;12.80;;;10.20;99.90;;;;;;5074383;28;20024;-73
2023/04/19 03:10:40;;;;;;;24.55;12.93;;;10.20;99.90;;;;;;5075203;28;20078;-73
2023/04/19 03:13:05;;;;;;;23.83;12.13;;;10.20;99.90;;;;;;5075196;28;20032;-73
2023/04/19 03:15:31;;;;;;;22.75;11.90;;;10.20;99.90;;;;;;5075196;28;20419;-73
2023/04/19 03:17:56;;;;;;;24.27;12.73;;;10.20;99.90;;;;;;5075200;28;20456;-73
2023/04/19 03:20:22;;;;;;;24.25;12.65;;;10.20;99.90;;;;;;5056629;28;20033;-73
2023/04/19 03:22:48;;;;;;;24.15;12.23;;;10.20;99.90;;;;;;5054808;28;20043;-73
2023/04/19 03:25:13;;;;;;;23.63;12.65;;;10.20;99.90;;;;;;5054839;28;20100;-73
2023/04/19 03:27:39;;;;;;;23.35;12.35;;;10.20;99.90;;;;;;5054561;28;20049;-73
2023/04/19 03:30:05;;;;;;;26.00;13.48;;;10.20;99.90;;;;;;5055042;28;20029;-73
2023/04/19 03:32:31;;;;;;;28.48;12.32;;;10.30;99.90;;;;;;5055095;28;20071;-73
2023/04/19 03:34:56;;;;;;;22.90;12.10;;;10.30;99.90;;;;;;5054572;28;20048;-73
2023/04/19 03:37:22;;;;;;;24.02;12.13;;;10.30;99.90;;;;;;5054400;28;20036;-73
2023/04/19 03:39:47;;;;;;;21.00;11.80;;;10.30;99.90;;;;;;5054217;28;20039;-73
2023/04/19 03:42:13;;;;;;;22.77;12.55;;;10.30;99.90;;;;;;5054722;28;20025;-73
2023/04/19 03:44:39;;;;;;;23.95;12.75;;;10.30;99.90;;;;;;5054479;28;20032;-73
2023/04/19 03:47:04;;;;;;;23.38;12.80;;;10.30;99.90;;;;;;5054366;28;20040;-73
2023/04/19 03:49:30;;;;;;;24.42;13.18;;;10.40;99.90;;;;;;5054150;28;20029;-73
2023/04/19 03:51:55;;;;;;;24.63;13.18;;;10.40;99.90;;;;;;5054239;28;20033;-73
2023/04/19 03:54:21;;;;;;;23.50;12.73;;;10.30;99.90;;;;;;5057945;28;20078;-73
2023/04/19 03:56:47;;;;;;;24.13;12.30;;;10.30;99.90;;;;;;5074477;28;20044;-73
2023/04/19 03:59:12;;;;;;;23.33;13.25;;;10.40;99.90;;;;;;5074087;28;20108;-72
2023/04/19 04:01:40;;;;;;;22.58;12.32;;;10.30;99.90;;;;;;5074221;28;20057;-72
2023/04/19 04:04:07;;;;;;;26.63;11.93;;;10.30;99.90;;;;;;5074531;28;20026;-72
2023/04/19 04:06:33;;;;;;;26.00;13.02;;;10.30;99.90;;;;;;5074107;28;20028;-72
2023/04/19 04:08:59;;;;;;;22.00;11.90;;;10.30;99.90;;;;;;5074432;28;20025;-73
2023/04/19 04:11:24;;;;;;;25.00;13.43;;;10.30;99.90;;;;;;5074525;28;20107;-73
2023/04/19 04:13:50;;;;;;;22.40;11.93;;;10.40;99.90;;;;;;5074239;28;20021;-73
2023/04/19 04:16:16;;;;;;;24.50;12.23;;;10.30;99.90;;;;;;5074163;28;20085;-73
2023/04/19 04:18:41;;;;;;;22.13;11.95;;;10.30;99.90;;;;;;5074172;28;20056;-73
2023/04/19 04:21:07;;;;;;;21.58;10.75;;;10.30;99.90;;;;;;5073733;28;20021;-73
2023/04/19 04:23:33;;;;;;;21.92;11.80;;;10.30;99.90;;;;;;5074298;28;20032;-73
2023/04/19 04:25:59;;;;;;;26.05;12.45;;;10.20;99.90;;;;;;5072665;28;20036;-73
2023/04/19 04:28:26;;;;;;;25.13;12.30;;;10.20;99.90;;;;;;5074010;28;20127;-73
2023/04/19 04:30:52;;;;;;;23.48;11.48;;;10.10;99.90;;;;;;5073995;28;20028;-73
2023/04/19 04:33:17;;;;;;;22.05;11.77;;;10.10;99.90;;;;;;5073474;28;20528;-72
2023/04/19 04:35:43;;;;;;;23.95;11.93;;;10.00;99.90;;;;;;5073754;28;20542;-73
2023/04/19 04:38:09;;;;;;;19.48;10.88;;;9.90;99.90;;;;;;5073854;28;20032;-73
2023/04/19 04:40:34;;;;;;;22.33;11.80;;;9.90;99.90;;;;;;5073881;28;20024;-73
2023/04/19 04:43:03;;;;;;;22.77;11.63;;;9.80;99.90;;;;;;5073290;28;20093;-73
2023/04/19 04:45:29;;;;;;;23.15;11.38;;;9.70;99.90;;;;;;5073394;28;20028;-73
2023/04/19 04:47:54;;;;;;;22.40;11.43;;;9.70;99.90;;;;;;5073443;28;20384;-74
2023/04/19 04:50:20;;;;;;;21.30;11.02;;;9.70;99.90;;;;;;5071652;28;20021;-74
2023/04/19 04:52:45;;;;;;;22.55;12.13;;;9.60;99.90;;;;;;5073561;28;20032;-73
2023/04/19 04:55:11;;;;;;;20.23;10.52;;;9.60;99.90;;;;;;5073536;28;20035;-72
2023/04/19 04:57:36;;;;;;;20.65;11.10;;;9.50;99.90;;;;;;5073261;28;20020;-73
2023/04/19 05:00:04;;;;;;;21.02;10.70;;;9.50;99.90;;;;;;5072560;28;20024;-73
2023/04/19 05:02:30;;;;;;;20.00;9.23;;;9.50;99.90;;;;;;5073195;28;20023;-73
2023/04/19 05:04:56;;;;;;;21.67;10.38;;;9.50;99.90;;;;;;5072694;28;20036;-73
2023/04/19 05:07:21;;;;;;;20.75;10.00;;;9.50;99.90;;;;;;5071582;28;20044;-72
2023/04/19 05:09:47;;;;;;;22.48;10.07;;;9.50;99.90;;;;;;5073250;28;20031;-72
2023/04/19 05:12:13;;;;;;;18.42;9.65;;;9.50;99.90;;;;;;5073086;28;20030;-72
2023/04/19 05:14:38;;;;;;;15.95;7.43;;;9.50;99.90;;;;;;5073130;28;20043;-73
2023/04/19 05:17:04;;;;;;;18.92;10.00;;;9.50;99.90;;;;;;5072824;28;20528;-73
2023/04/19 05:19:29;;;;;;;21.02;9.90;;;9.50;99.90;;;;;;5060245;28;20025;-73
2023/04/19 05:21:55;;;;;;;19.80;9.63;;;9.50;99.90;;;;;;5053099;28;20036;-72
2023/04/19 05:24:20;;;;;;;19.60;9.13;;;9.50;99.90;;;;;;5053013;28;20382;-72
2023/04/19 05:26:46;;;;;;;19.50;9.02;;;9.50;99.90;;;;;;5051565;28;20075;-72
2023/04/19 05:29:11;;;;;;;17.48;9.00;;;9.50;99.90;;;;;;5052859;28;20041;-73
2023/04/19 05:31:37;;;;;;;21.40;8.68;;;9.60;99.90;;;;;;5067662;28;20048;-72
2023/04/19 05:34:02;;;;;;;19.13;8.50;;;9.60;99.90;;;;;;5073096;28;20077;-72
2023/04/19 05:36:28;;;;;;;17.50;8.13;;;9.60;99.90;;;;;;5072871;28;20479;-73
2023/04/19 05:38:54;;;;;;;19.40;8.48;;;9.60;99.90;;;;;;5071512;28;20174;-72
2023/04/19 05:41:19;;;;;;;19.00;8.45;;;9.70;99.90;;;;;;5072455;28;20027;-72
2023/04/19 05:43:45;;;;;;;17.88;8.40;;;9.70;99.90;;;;;;5072861;28;20024;-73
2023/04/19 05:46:10;;;;;;;14.70;7.78;;;9.70;99.90;;;;;;5072798;28;20488;-73
2023/04/19 05:48:36;;;;;;;15.50;8.13;;;9.80;99.90;;;;;;5072439;28;20057;-72
2023/04/19 05:51:02;;;;;;;17.80;8.00;;;9.80;99.90;;;;;;5071387;28;20063;-72
2023/04/19 05:53:28;;;;;;;17.05;8.80;;;9.80;99.90;;;;;;5072702;28;20031;-73
2023/04/19 05:55:53;;;;;;;18.77;8.35;;;9.90;99.90;;;;;;5072661;28;20099;-73
2023/04/19 05:58:19;;;;;;;16.92;7.68;;;10.00;99.90;;;;;;5072988;28;20028;-73
2023/04/19 06:00:45;;;;;;;15.52;8.20;;;10.00;99.90;;;;;;5072698;28;20056;-72
2023/04/19 06:03:11;;;;;;;19.30;8.55;;;10.10;99.90;;;;;;5072591;28;20060;-72
2023/04/19 06:05:36;;;;;;;14.60;7.35;;;10.10;99.90;;;;;;5072530;28;20037;-72
2023/04/19 06:08:02;;;;;;;14.07;7.28;;;10.20;99.90;;;;;;5072228;28;20066;-72
2023/04/19 06:10:28;;;;;;;16.08;6.90;;;10.30;99.90;;;;;;5072082;28;20024;-72
2023/04/19 06:12:53;;;;;;;16.25;7.18;;;10.40;99.90;;;;;;5072498;28;20035;-72
2023/04/19 06:15:19;;;;;;;14.60;6.72;;;10.40;99.90;;;;;;5072612;28;20116;-73
2023/04/19 06:17:45;;;;;;;13.23;5.45;;;10.50;99.90;;;;;;5071879;28;20060;-73
2023/04/19 06:20:11;;;;;;;13.25;7.15;;;10.60;99.90;;;;;;5059189;28;20126;-73
2023/04/19 06:22:44;;;;;;;16.50;6.80;;;10.60;99.90;;;;;;5056072;28;20025;-73
2023/04/19 06:25:10;;;;;;;13.27;6.07;;;10.70;99.90;;;;;;5056038;28;20021;-73
2023/04/19 06:27:36;;;;;;;12.98;6.68;;;10.80;99.90;;;;;;5056024;28;20057;-73
2023/04/19 06:30:01;;;;;;;15.90;7.20;;;10.90;99.90;;;;;;5056041;28;20029;-73
2023/04/19 06:32:27;;;;;;;14.23;5.82;;;10.90;99.90;;;;;;5055590;28;20389;-73
2023/04/19 06:34:52;;;;;;;11.30;5.90;;;11.00;99.90;;;;;;5055617;28;20397;-73
2023/04/19 06:37:18;;;;;;;14.95;6.72;;;11.10;99.90;;;;;;5055617;28;20060;-73
2023/04/19 06:39:44;;;;;;;14.18;6.13;;;11.20;99.90;;;;;;5054117;28;20044;-73
2023/04/19 06:42:11;;;;;;;12.98;6.28;;;11.30;99.90;;;;;;5055840;28;20099;-73
2023/04/19 06:44:37;;;;;;;12.27;5.78;;;11.40;99.90;;;;;;5055697;28;20021;-73
2023/04/19 06:47:03;;;;;;;16.33;7.25;;;11.50;99.90;;;;;;5065103;28;20066;-73
2023/04/19 06:49:29;;;;;;;13.85;6.35;;;11.70;99.90;;;;;;5075569;28;20464;-73
2023/04/19 06:51:54;;;;;;;12.25;5.43;;;12.00;99.90;;;;;;5075639;28;20028;-72
2023/04/19 06:54:21;;;;;;;14.50;6.45;;;12.20;99.90;;;;;;5071279;28;20090;-74
2023/04/19 06:56:48;;;;;;;14.02;6.20;;;12.40;99.90;;;;;;5054618;28;20068;-73
2023/04/19 06:59:18;;;;;;;13.60;6.03;;;12.60;99.90;;;;;;5055758;28;20025;-73
2023/04/19 07:01:45;;;;;;;10.57;5.03;;;12.90;99.90;;;;;;5055338;28;20021;-73
2023/04/19 07:04:11;;;;;;;12.00;5.30;;;13.50;99.90;;;;;;5055150;28;20025;-73
2023/04/19 07:06:37;;;;;;;11.60;5.13;;;13.90;99.60;;;;;;5055274;28;20144;-73
2023/04/19 07:09:04;;;;;;;10.32;4.65;;;14.30;98.70;;;;;;5055328;28;20037;-73
2023/04/19 07:11:30;;;;;;;12.77;4.75;;;14.50;97.90;;;;;;5055272;28;20021;-73
2023/04/19 07:13:57;;;;;;;12.60;5.32;;;14.50;97.60;;;;;;5055067;28;20025;-73
2023/04/19 07:16:22;;;;;;;11.45;4.55;;;14.40;97.60;;;;;;5054865;28;20040;-73
2023/04/19 07:18:48;;;;;;;13.57;5.40;;;14.20;97.60;;;;;;5060254;28;20017;-72
2023/04/19 07:21:14;;;;;;;11.13;4.40;;;14.00;97.60;;;;;;5074469;28;20106;-73
2023/04/19 07:23:40;;;;;;;10.50;4.60;;;13.80;97.40;;;;;;5074880;28;20021;-73
2023/04/19 07:26:06;;;;;;;10.93;4.65;;;13.70;97.30;;;;;;5071831;28;20121;-73
2023/04/19 07:28:32;;;;;;;10.32;4.10;;;13.60;96.80;;;;;;5061309;28;20085;-73
2023/04/19 07:30:57;;;;;;;11.65;4.80;;;13.60;96.50;;;;;;5068493;28;20522;-73
2023/04/19 07:33:26;;;;;;;8.93;4.35;;;13.70;96.20;;;;;;5074876;28;20024;-73
2023/04/19 07:35:52;;;;;;;13.35;4.93;;;13.80;96.30;;;;;;5074819;28;20035;-74
2023/04/19 07:38:18;;;;;;;11.73;4.78;;;13.90;95.70;;;;;;5074519;28;20090;-74
2023/04/19 07:40:44;;;;;;;10.93;4.78;;;14.00;95.30;;;;;;5074795;28;20032;-74
2023/04/19 07:43:10;;;;;;;10.40;4.57;;;14.20;95.60;;;;;;5074192;28;20020;-74
2023/04/19 07:45:35;;;;;;;8.27;4.63;;;14.50;95.00;;;;;;5074359;28;20027;-74
2023/04/19 07:48:01;;;;;;;8.70;4.50;;;14.80;94.50;;;;;;5074328;28;20389;-74
2023/04/19 07:50:27;;;;;;;11.38;4.10;;;15.10;94.10;;;;;;5074732;28;20060;-74
2023/04/19 07:52:53;;;;;;;9.35;4.38;;;15.30;94.00;;;;;;5074933;28;20036;-74
2023/04/19 07:55:18;;;;;;;10.10;4.50;;;15.60;93.80;;;;;;5074365;28;20081;-74
2023/04/19 07:57:47;;;;;;;9.82;3.90;;;15.90;93.30;;;;;;5074338;28;20408;-74
2023/04/19 08:00:14;;;;;;;7.57;3.80;;;16.30;93.00;;;;;;5065285;28;20057;-74
2023/04/19 08:02:43;;;;;;;7.70;3.70;;;17.00;92.30;;;;;;5054254;28;20040;-74
2023/04/19 08:05:09;;;;;;;7.50;3.90;;;17.50;91.50;;;;;;5054074;28;20378;-74
2023/04/19 08:07:34;;;;;;;9.70;4.10;;;18.10;90.30;;;;;;5054152;28;20072;-74
2023/04/19 08:10:00;;;;;;;6.78;3.55;;;18.60;89.10;;;;;;5054315;28;20060;-74
2023/04/19 08:12:25;;;;;;;9.57;4.25;;;18.80;87.40;;;;;;5053736;28;20032;-74
2023/04/19 08:14:51;;;;;;;10.35;3.88;;;19.10;86.90;;;;;;5053741;28;20032;-74
2023/04/19 08:17:20;;;;;;;8.75;4.15;;;19.50;85.80;;;;;;5057507;28;20033;-74
2023/04/19 08:19:48;;;;;;;7.18;3.60;;;19.70;84.40;;;;;;5063767;28;20493;-74
2023/04/19 08:22:14;;;;;;;5.53;3.42;;;19.90;84.40;;;;;;5066359;28;20060;-74
2023/04/19 08:24:40;;;;;;;11.43;3.90;;;20.40;83.70;;;;;;5055271;28;20017;-74
2023/04/19 08:27:06;;;;;;;10.63;3.97;;;20.60;82.50;;;;;;5053443;28;20370;-73
2023/04/19 08:29:32;;;;;;;7.35;3.33;;;20.80;81.70;;;;;;5053917;28;20429;-73
2023/04/19 08:31:58;;;;;;;7.20;3.80;;;21.10;80.50;;;;;;5053895;28;20039;-74
2023/04/19 08:34:23;;;;;;;9.50;3.72;;;21.30;80.10;;;;;;5062799;28;20481;-73
2023/04/19 08:36:49;;;;;;;7.15;3.15;;;21.60;78.20;;;;;;5073690;28;20035;-73
2023/04/19 08:39:15;;;;;;;9.75;3.83;;;21.50;77.20;;;;;;5073792;28;20029;-74
2023/04/19 08:41:40;;;;;;;4.97;2.90;;;21.50;76.50;;;;;;5072855;28;20488;-74
2023/04/19 08:44:07;;;;;;;8.00;3.28;;;21.60;75.40;;;;;;5073583;28;20376;-74
2023/04/19 08:46:33;;;;;;;9.77;3.65;;;21.70;74.90;;;;;;5073893;28;20066;-73
2023/04/19 08:48:59;;;;;;;8.52;2.75;;;21.90;74.10;;;;;;5073395;28;20431;-74
2023/04/19 08:51:26;;;;;;;8.57;2.75;;;22.00;72.00;;;;;;5073402;28;20060;-74
2023/04/19 08:53:55;;;;;;;7.95;2.70;;;22.00;71.00;;;;;;5073359;28;20021;-74
2023/04/19 08:56:21;;;;;;;5.30;2.88;;;22.00;70.90;;;;;;5071816;28;20384;-74
2023/04/19 08:58:47;;;;;;;6.07;2.85;;;22.20;70.50;;;;;;5073157;28;20035;-72
2023/04/19 09:01:12;;;;;;;6.63;2.70;;;22.20;69.80;;;;;;5072613;28;20103;-73
2023/04/19 09:03:45;;;;;;;6.25;2.67;;;22.20;70.10;;;;;;5073058;28;20063;-73
2023/04/19 09:06:11;;;;;;;5.65;2.80;;;22.20;70.00;;;;;;5073212;28;20032;-73
2023/04/19 09:08:38;;;;;;;6.82;3.47;;;22.30;69.20;;;;;;5072574;28;20035;-73
2023/04/19 09:11:03;;;;;;;8.65;2.40;;;22.30;69.00;;;;;;5072571;28;20032;-73
2023/04/19 09:13:30;;;;;;;4.13;2.50;;;22.00;68.30;;;;;;5073338;28;20473;-73
2023/04/19 09:15:56;;;;;;;6.38;2.35;;;21.90;68.40;;;;;;5073182;28;20032;-74
2023/04/19 09:18:23;;;;;;;4.82;2.60;;;21.90;68.70;;;;;;5073327;28;20457;-74
2023/04/19 09:20:55;;;;;;;7.70;2.33;;;22.00;68.70;;;;;;5073479;28;20020;-74
2023/04/19 09:23:24;;;;;;;4.80;2.45;;;22.20;68.60;;;;;;5073112;28;20020;-73
2023/04/19 09:26:03;;;;;;;4.03;2.10;;;22.50;67.30;;;;;;5073141;28;20477;-73
2023/04/19 09:28:29;;;;;;;4.78;2.40;;;22.70;66.40;;;;;;5072653;28;20123;-73
2023/04/19 09:30:56;;;;;;;5.32;2.55;;;22.80;66.70;;;;;;5088495;28;20024;-72
2023/04/19 09:33:38;;;;;;;7.85;2.95;;;23.00;67.80;;;;;;5072990;28;20056;-77
2023/04/19 09:36:05;;;;;;;6.20;2.45;;;23.30;66.30;;;;;;5072762;28;20564;-73
2023/04/19 09:38:46;;;;;;;3.63;1.98;;;23.60;65.60;;;;;;5072730;28;20058;-74
2023/04/19 09:41:12;;;;;;;6.70;2.70;;;23.60;64.60;;;;;;5072977;28;20028;-73
2023/04/19 09:43:37;;;;;;;4.55;2.53;;;23.40;64.60;;;;;;5072967;28;20314;-74
2023/04/19 09:46:03;;;;;;;8.63;3.10;;;23.30;64.80;;;;;;5070977;28;20033;-75
2023/04/19 09:48:29;;;;;;;6.65;2.85;;;23.50;65.40;;;;;;5072379;28;20380;-74
2023/04/19 09:51:01;;;;;;;5.30;2.65;;;23.50;63.80;;;;;;5072852;28;20032;-73
2023/04/19 09:53:32;;;;;;;8.35;2.90;;;23.30;64.30;;;;;;5075001;28;20024;-73
2023/04/19 09:55:58;;;;;;;6.40;2.97;;;23.30;64.50;;;;;;5076604;28;20029;-74
2023/04/19 09:58:24;;;;;;;6.35;2.67;;;23.30;64.10;;;;;;5076701;28;20035;-73
2023/04/19 10:00:51;;;;;;;4.75;2.40;;;23.20;64.10;;;;;;5076343;28;20021;-73
2023/04/19 10:03:19;;;;;;;8.57;2.55;;;23.30;63.90;;;;;;5076773;28;20033;-73
2023/04/19 10:05:45;;;;;;;4.13;2.70;;;23.30;63.60;;;;;;5076516;28;20160;-73
2023/04/19 10:08:12;;;;;;;5.30;2.50;;;23.40;63.90;;;;;;5076613;28;20032;-73
2023/04/19 10:10:44;;;;;;;5.78;2.70;;;23.40;63.00;;;;;;5076254;28;20028;-75
2023/04/19 10:13:15;;;;;;;3.83;2.10;;;23.30;63.40;;;;;;5077032;28;20379;-75
2023/04/19 10:15:45;;;;;;;4.72;2.25;;;23.30;63.10;;;;;;5077341;28;20060;-74
2023/04/19 10:18:11;;;;;;;3.88;2.13;;;23.10;63.60;;;;;;5076233;28;20103;-74
2023/04/19 10:20:59;;;;;;;5.43;2.15;;;23.30;63.80;;;;;;5076857;28;20064;-73
2023/04/19 10:23:26;;;;;;;4.47;2.00;;;23.50;63.10;;;;;;5076713;28;20029;-74
2023/04/19 10:25:58;;;;;;;7.45;2.03;;;23.60;63.90;;;;;;5076798;28;20029;-74
2023/04/19 10:28:27;;;;;;;4.20;2.03;;;23.60;62.00;;;;;;5079120;28;20057;-74
2023/04/19 10:31:01;;;;;;;4.72;2.17;;;23.50;61.50;;;;;;5076990;28;20069;-73
2023/04/19 10:33:29;;;;;;;4.22;1.65;;;23.40;61.20;;;;;;5078063;28;20107;-77
2023/04/19 10:35:57;;;;;;;7.65;2.17;;;23.60;62.20;;;;;;5076183;28;20449;-72
2023/04/19 10:38:46;;;;;;;2.88;2.20;;;23.50;62.00;;;;;;5077335;28;20032;-72
2023/04/19 10:41:13;;;;;;;4.78;2.13;;;23.30;61.30;;;;;;5077043;28;20024;-77
2023/04/19 10:43:42;;;;;;;9.55;2.17;;;23.20;62.40;;;;;;5075742;28;20484;-76
2023/04/19 10:46:20;;;;;;;4.35;2.30;;;23.50;61.70;;;;;;5073616;28;20374;-74
2023/04/19 10:48:55;;;;;;;8.38;2.35;;;23.60;61.10;;;;;;5075549;28;20461;-76
2023/04/19 10:51:26;;;;;;;3.65;1.98;;;23.60;61.00;;;;;;5075913;28;20078;-75
2023/04/19 10:53:53;;;;;;;4.22;2.38;;;23.60;61.30;;;;;;5075284;28;20036;-76
2023/04/19 10:56:42;;;;;;;3.97;2.15;;;23.80;60.90;;;;;;5075450;28;20021;-74
2023/04/19 10:59:20;;;;;;;6.78;1.77;;;23.80;59.70;;;;;;5072731;28;20051;-74
2023/04/19 11:01:50;;;;;;;4.05;1.83;;;23.50;59.40;;;;;;5072261;28;20036;-72
2023/04/19 11:04:21;;;;;;;7.10;2.10;;;23.20;60.10;;;;;;5073172;28;20017;-76
2023/04/19 11:06:50;;;;;;;5.20;2.30;;;23.10;60.40;;;;;;5066088;28;20136;-73
2023/04/19 11:09:30;;;;;;;8.00;2.15;;;23.20;60.30;;;;;;5074669;28;20028;-75
2023/04/19 11:12:09;;;;;;;3.88;2.10;;;23.20;60.10;;;;;;5074529;28;20115;-73
2023/04/19 11:14:36;;;;;;;3.60;2.15;;;23.20;60.10;;;;;;5074964;28;20024;-73
2023/04/19 11:17:26;;;;;;;4.57;2.38;;;23.40;59.20;;;;;;5074689;28;20029;-72
2023/04/19 11:19:53;;;;;;;4.20;2.38;;;23.40;59.20;;;;;;5074007;28;20037;-73
2023/04/19 11:22:24;;;;;;;6.28;2.33;;;23.50;59.30;;;;;;5074754;28;20056;-72
2023/04/19 11:24:50;;;;;;;6.35;2.70;;;23.60;60.00;;;;;;5075197;28;20075;-73
2023/04/19 11:27:15;;;;;;;3.90;2.15;;;23.70;59.40;;;;;;5074646;28;20076;-73
2023/04/19 11:29:41;;;;;;;6.97;2.40;;;23.80;59.70;;;;;;5074643;28;20033;-72
2023/04/19 11:32:06;;;;;;;4.10;2.58;;;24.10;59.80;;;;;;5075195;28;20020;-73
2023/04/19 11:34:39;;;;;;;5.88;2.85;;;24.30;59.10;;;;;;5071964;28;20322;-73
2023/04/19 11:37:05;;;;;;;3.53;2.40;;;24.50;59.10;;;;;;5073813;28;20064;-75
2023/04/19 11:39:30;;;;;;;5.80;2.63;;;24.90;58.10;;;;;;5073986;28;20443;-76
2023/04/19 11:41:56;;;;;;;6.70;3.05;;;24.90;57.40;;;;;;5073595;28;20021;-74
2023/04/19 11:44:22;;;;;;;6.82;2.63;;;25.00;57.80;;;;;;5071353;28;20024;-73
2023/04/19 11:47:03;;;;;;;8.45;3.15;;;24.90;56.90;;;;;;5071210;28;20095;-75
2023/04/19 11:49:31;;;;;;;8.10;2.90;;;24.90;56.20;;;;;;5059269;28;20032;-74
2023/04/19 11:52:01;;;;;;;5.05;2.80;;;25.00;56.60;;;;;;5074384;28;20031;-73
2023/04/19 11:54:27;;;;;;;6.57;2.85;;;25.00;56.60;;;;;;5074357;28;20028;-74
2023/04/19 11:57:07;;;;;;;7.93;2.80;;;24.80;56.40;;;;;;5074134;28;20037;-74
2023/04/19 11:59:34;;;;;;;7.20;3.30;;;24.70;56.00;;;;;;5063522;28;20071;-74
2023/04/19 12:02:11;;;;;;;5.18;2.80;;;24.50;56.30;;;;;;5070533;28;20032;-73
2023/04/19 12:04:37;;;;;;;5.22;3.13;;;24.50;55.60;;;;;;5074077;28;20021;-73
2023/04/19 12:07:05;;;;;;;6.85;2.63;;;24.40;55.10;;;;;;5073593;28;20085;-75
2023/04/19 12:09:35;;;;;;;10.85;3.30;;;24.10;54.70;;;;;;5072493;28;20039;-74
2023/04/19 12:12:01;;;;;;;6.18;2.60;;;23.90;54.80;;;;;;5073170;28;20074;-72
2023/04/19 12:14:29;;;;;;;8.82;3.10;;;23.80;54.60;;;;;;5072609;28;20024;-73
2023/04/19 12:17:06;;;;;;;10.65;3.70;;;23.70;55.30;;;;;;5073204;28;20039;-72
2023/04/19 12:19:42;;;;;;;6.65;3.20;;;23.80;56.30;;;;;;5066902;28;20024;-74
2023/04/19 12:22:13;;;;;;;6.82;3.35;;;24.10;55.50;;;;;;5065688;28;20028;-74
2023/04/19 12:24:39;;;;;;;9.15;4.07;;;24.10;55.60;;;;;;5070024;28;20103;-73
2023/04/19 12:27:05;;;;;;;7.05;2.90;;;24.30;54.60;;;;;;5073529;28;20048;-72
2023/04/19 12:29:32;;;;;;;5.78;2.53;;;24.10;54.40;;;;;;5072738;28;20545;-73
2023/04/19 12:32:02;;;;;;;5.85;2.70;;;23.90;53.60;;;;;;5061678;28;20082;-73
2023/04/19 12:34:28;;;;;;;5.88;3.13;;;23.80;53.00;;;;;;5073261;28;20024;-74
2023/04/19 12:36:54;;;;;;;5.35;2.60;;;23.60;52.70;;;;;;5063256;28;20111;-73
2023/04/19 12:39:20;;;;;;;6.88;2.78;;;23.30;53.40;;;;;;5072911;28;20086;-70